Time;durP1;ratioP1;P1;durP2;ratioP2;P2;SDS_P1;SDS_P2;PMS_P1;PMS_P2;Temp;Humidity;BMP_temperature;BMP_pressure;BME280_temperature;BME280_humidity;BME280_pressure;Samples;Min_cycle;Max_cycle;Signal;HPM_P1;HPM_P2
2023/11/03 00:00:00;;;;;;;2.75;0.25;;;;;;;;;;5065077;28;20053;-73
2023/11/03 00:02:31;;;;;;;0.30;0.10;;;;;;;;;;5065531;28;20055;-73
2023/11/03 00:05:04;;;;;;;0.28;0.20;;;;;;;;;;5065517;28;20048;-73
2023/11/03 00:07:36;;;;;;;2.45;0.17;;;;;;;;;;5064459;28;20056;-73
2023/11/03 00:10:13;;;;;;;0.30;0.20;;;;;;;;;;5063454;28;20699;-72
2023/11/03 00:12:44;;;;;;;2.88;0.20;;;;;;;;;;5064747;28;20423;-73
2023/11/03 00:15:15;;;;;;;1.85;0.20;;;;;;;;;;5064778;28;20048;-73
2023/11/03 00:17:47;;;;;;;0.13;0.13;;;;;;;;;;5063265;28;20825;-72
2023/11/03 00:20:19;;;;;;;3.30;0.20;;;;;;;;;;5064083;28;20446;-73
2023/11/03 00:22:49;;;;;;;0.35;0.30;;;;;;;;;;5064700;28;20049;-72
2023/11/03 00:25:22;;;;;;;0.63;0.20;;;;;;;;;;5063912;28;20040;-72
2023/11/03 00:27:52;;;;;;;1.17;0.10;;;;;;;;;;5064732;28;20048;-73
2023/11/03 00:30:23;;;;;;;0.75;0.20;;;;;;;;;;5063155;28;20067;-72
2023/11/03 00:32:52;;;;;;;2.58;0.50;;;;;;;;;;5064232;28;20045;-72
2023/11/03 00:35:25;;;;;;;0.82;0.20;;;;;;;;;;5064603;28;20056;-73
2023/11/03 00:37:56;;;;;;;1.00;0.10;;;;;;;;;;5063247;28;20048;-73
2023/11/03 00:40:27;;;;;;;1.17;0.17;;;;;;;;;;5062552;28;20056;-72
2023/11/03 00:43:00;;;;;;;0.50;0.30;;;;;;;;;;5064543;28;20049;-73
2023/11/03 00:45:31;;;;;;;3.58;0.28;;;;;;;;;;5062313;28;20048;-73
2023/11/03 00:48:02;;;;;;;0.85;0.10;;;;;;;;;;5063831;28;20056;-73
2023/11/03 00:50:32;;;;;;;1.60;0.20;;;;;;;;;;5064853;28;20075;-74
2023/11/03 00:53:02;;;;;;;1.45;0.10;;;;;;;;;;5064696;28;20059;-75
2023/11/03 00:55:34;;;;;;;1.00;0.20;;;;;;;;;;5064677;28;20040;-73
2023/11/03 00:58:05;;;;;;;2.13;0.25;;;;;;;;;;5064336;28;20044;-75
2023/11/03 01:00:40;;;;;;;2.63;0.30;;;;;;;;;;5063092;28;20052;-74
2023/11/03 01:03:14;;;;;;;0.35;0.25;;;;;;;;;;5063902;28;20048;-73
2023/11/03 01:05:45;;;;;;;1.58;0.20;;;;;;;;;;5062254;28;20053;-75
2023/11/03 01:08:16;;;;;;;0.88;0.30;;;;;;;;;;5059731;28;20052;-74
2023/11/03 01:10:47;;;;;;;0.45;0.20;;;;;;;;;;5062077;28;20057;-74
2023/11/03 01:13:21;;;;;;;0.50;0.30;;;;;;;;;;5060671;28;20048;-75
2023/11/03 01:15:52;;;;;;;0.28;0.10;;;;;;;;;;5061748;28;20055;-74
2023/11/03 01:18:23;;;;;;;0.40;0.40;;;;;;;;;;5063265;28;20640;-73
2023/11/03 01:20:57;;;;;;;0.43;0.30;;;;;;;;;;5063732;28;20052;-74
2023/11/03 01:23:27;;;;;;;1.92;0.50;;;;;;;;;;5063612;28;20506;-73
2023/11/03 01:25:59;;;;;;;4.57;0.50;;;;;;;;;;5064446;28;20048;-73
2023/11/03 01:28:31;;;;;;;1.30;0.52;;;;;;;;;;5063545;28;20044;-73
2023/11/03 01:31:04;;;;;;;2.85;0.60;;;;;;;;;;5061765;28;20063;-73
2023/11/03 01:33:41;;;;;;;1.17;0.70;;;;;;;;;;5063878;28;20115;-74
2023/11/03 01:36:12;;;;;;;1.30;0.63;;;;;;;;;;5063217;28;20049;-73
2023/11/03 01:38:44;;;;;;;1.35;0.82;;;;;;;;;;5062478;28;20044;-73
2023/11/03 01:41:15;;;;;;;1.52;0.80;;;;;;;;;;5063095;28;20063;-74
2023/11/03 01:44:11;;;;;;;2.85;0.90;;;;;;;;;;5063249;28;20045;-74
2023/11/03 01:46:43;;;;;;;1.48;0.63;;;;;;;;;;5062624;28;20084;-72
2023/11/03 01:49:14;;;;;;;1.92;1.13;;;;;;;;;;5063224;28;20059;-74
2023/11/03 01:51:45;;;;;;;1.70;0.75;;;;;;;;;;5062884;28;20048;-73
2023/11/03 01:54:16;;;;;;;2.63;1.00;;;;;;;;;;5063347;28;20063;-73
2023/11/03 01:56:46;;;;;;;4.30;0.95;;;;;;;;;;5062804;28;20049;-74
2023/11/03 01:59:18;;;;;;;2.80;0.90;;;;;;;;;;5061549;28;20418;-73
2023/11/03 02:01:51;;;;;;;4.63;1.02;;;;;;;;;;5061436;28;20067;-73
2023/11/03 02:04:23;;;;;;;1.25;0.90;;;;;;;;;;5061990;28;20037;-73
2023/11/03 02:06:55;;;;;;;2.70;0.85;;;;;;;;;;5062028;28;20384;-73
2023/11/03 02:09:26;;;;;;;3.58;1.10;;;;;;;;;;5059977;28;20067;-73
2023/11/03 02:11:57;;;;;;;1.65;0.93;;;;;;;;;;5061817;28;20052;-73
2023/11/03 02:14:27;;;;;;;1.65;1.15;;;;;;;;;;5062656;28;20059;-73
2023/11/03 02:17:00;;;;;;;1.20;0.95;;;;;;;;;;5062072;28;20052;-73
2023/11/03 02:19:32;;;;;;;1.38;1.02;;;;;;;;;;5062063;28;20055;-73
2023/11/03 02:22:03;;;;;;;3.35;1.00;;;;;;;;;;5062100;28;20052;-73
2023/11/03 02:24:33;;;;;;;3.00;0.90;;;;;;;;;;5060968;28;20040;-73
2023/11/03 02:27:04;;;;;;;7.50;1.13;;;;;;;;;;5060894;28;20048;-73
2023/11/03 02:29:35;;;;;;;1.67;0.82;;;;;;;;;;5062135;28;20044;-72
2023/11/03 02:32:05;;;;;;;3.10;0.93;;;;;;;;;;5062607;28;20067;-72
2023/11/03 02:34:35;;;;;;;3.10;1.00;;;;;;;;;;5062326;28;20083;-72
2023/11/03 02:37:05;;;;;;;1.45;0.70;;;;;;;;;;5061981;28;20490;-72
2023/11/03 02:39:37;;;;;;;0.98;0.80;;;;;;;;;;5061998;28;20055;-73
2023/11/03 02:42:07;;;;;;;2.17;1.17;;;;;;;;;;5060519;28;20056;-73
2023/11/03 02:44:37;;;;;;;2.15;0.88;;;;;;;;;;5061439;28;20055;-73
2023/11/03 02:47:08;;;;;;;5.40;0.80;;;;;;;;;;5062241;28;20052;-72
2023/11/03 02:49:40;;;;;;;1.35;0.88;;;;;;;;;;5062124;28;20048;-73
2023/11/03 02:52:10;;;;;;;1.63;0.85;;;;;;;;;;5061841;28;20074;-73
2023/11/03 02:54:41;;;;;;;1.63;0.98;;;;;;;;;;5062013;28;20048;-73
2023/11/03 02:57:11;;;;;;;1.20;1.02;;;;;;;;;;5060372;28;20052;-73
2023/11/03 02:59:41;;;;;;;5.03;0.73;;;;;;;;;;5061820;28;20045;-72
2023/11/03 03:02:11;;;;;;;1.50;1.38;;;;;;;;;;5062034;28;20080;-72
2023/11/03 03:04:42;;;;;;;1.85;0.98;;;;;;;;;;5062036;28;20049;-73
2023/11/03 03:07:12;;;;;;;2.60;0.80;;;;;;;;;;5062118;28;20119;-72
2023/11/03 03:09:42;;;;;;;5.45;0.90;;;;;;;;;;5060313;28;20064;-73
2023/11/03 03:12:14;;;;;;;1.08;0.80;;;;;;;;;;5060395;28;20061;-74
2023/11/03 03:14:44;;;;;;;2.45;1.08;;;;;;;;;;5060801;28;20044;-73
2023/11/03 03:17:14;;;;;;;13.48;1.50;;;;;;;;;;5060420;28;20057;-73
2023/11/03 03:19:46;;;;;;;7.72;0.98;;;;;;;;;;5062008;28;20056;-73
2023/11/03 03:22:16;;;;;;;2.17;1.17;;;;;;;;;;5061346;28;20693;-72
2023/11/03 03:24:46;;;;;;;6.53;1.10;;;;;;;;;;5061821;28;20567;-73
2023/11/03 03:27:16;;;;;;;1.90;0.90;;;;;;;;;;5061901;28;20159;-74
2023/11/03 03:29:46;;;;;;;1.75;1.00;;;;;;;;;;5063526;28;20438;-72
2023/11/03 03:32:16;;;;;;;4.93;1.42;;;;;;;;;;5064151;28;20044;-74
2023/11/03 03:34:47;;;;;;;2.92;0.90;;;;;;;;;;5064995;28;20059;-71
2023/11/03 03:37:18;;;;;;;1.75;0.88;;;;;;;;;;5065786;28;20495;-73
2023/11/03 03:39:49;;;;;;;3.90;1.00;;;;;;;;;;5063777;28;20545;-72
2023/11/03 03:42:19;;;;;;;2.03;0.93;;;;;;;;;;5064259;28;20503;-73
2023/11/03 03:44:49;;;;;;;4.68;1.13;;;;;;;;;;5065795;28;20056;-74
2023/11/03 03:47:20;;;;;;;5.22;0.90;;;;;;;;;;5065049;28;20051;-72
2023/11/03 03:49:50;;;;;;;1.50;0.90;;;;;;;;;;5065896;28;20052;-74
2023/11/03 03:52:20;;;;;;;1.63;0.93;;;;;;;;;;5065582;28;20044;-72
2023/11/03 03:54:51;;;;;;;3.35;0.82;;;;;;;;;;5065674;28;20048;-73
2023/11/03 03:57:22;;;;;;;3.33;1.15;;;;;;;;;;5065240;28;20048;-74
2023/11/03 03:59:52;;;;;;;3.20;1.13;;;;;;;;;;5064071;28;20052;-73
2023/11/03 04:02:23;;;;;;;2.55;2.35;;;;;;;;;;5063825;28;20045;-73
2023/11/03 04:04:53;;;;;;;4.13;1.10;;;;;;;;;;5064985;28;20498;-72
2023/11/03 04:07:23;;;;;;;2.13;1.00;;;;;;;;;;5064742;28;20075;-73
2023/11/03 04:09:54;;;;;;;2.85;1.30;;;;;;;;;;5064812;28;20052;-73
2023/11/03 04:12:24;;;;;;;2.30;0.88;;;;;;;;;;5064368;28;20044;-72
2023/11/03 04:14:54;;;;;;;3.72;1.05;;;;;;;;;;5064245;28;20040;-73
2023/11/03 04:17:24;;;;;;;2.22;0.77;;;;;;;;;;5064557;28;20056;-73
2023/11/03 04:19:54;;;;;;;3.72;1.30;;;;;;;;;;5065243;28;20388;-73
2023/11/03 04:22:25;;;;;;;8.60;1.00;;;;;;;;;;5065077;28;20055;-73
2023/11/03 04:24:55;;;;;;;1.80;0.93;;;;;;;;;;5064636;28;20049;-72
2023/11/03 04:27:26;;;;;;;1.63;0.90;;;;;;;;;;5064526;28;20044;-73
2023/11/03 04:29:56;;;;;;;2.72;1.00;;;;;;;;;;5064595;28;20052;-73
2023/11/03 04:32:26;;;;;;;2.97;1.10;;;;;;;;;;5064652;28;20051;-72
2023/11/03 04:34:56;;;;;;;2.22;0.88;;;;;;;;;;5064300;28;20415;-72
2023/11/03 04:37:27;;;;;;;2.72;1.10;;;;;;;;;;5064055;28;20060;-72
2023/11/03 04:39:57;;;;;;;5.88;1.20;;;;;;;;;;5064089;28;20052;-73
2023/11/03 04:42:28;;;;;;;4.10;1.10;;;;;;;;;;5064804;28;20071;-71
2023/11/03 04:44:58;;;;;;;3.90;1.00;;;;;;;;;;5064192;28;20499;-72
2023/11/03 04:47:28;;;;;;;4.93;1.20;;;;;;;;;;5064189;28;20056;-72
2023/11/03 04:49:59;;;;;;;2.50;0.68;;;;;;;;;;5063743;28;20063;-73
2023/11/03 04:52:29;;;;;;;1.20;0.73;;;;;;;;;;5064457;28;20051;-71
2023/11/03 04:54:59;;;;;;;4.90;0.70;;;;;;;;;;5063877;28;20047;-73
2023/11/03 04:57:30;;;;;;;2.05;1.00;;;;;;;;;;5064937;28;20040;-73
2023/11/03 05:00:01;;;;;;;6.10;1.08;;;;;;;;;;5063815;28;20040;-74
2023/11/03 05:02:31;;;;;;;1.58;0.80;;;;;;;;;;5063532;28;20499;-73
2023/11/03 05:05:06;;;;;;;3.40;1.15;;;;;;;;;;5063992;28;20048;-73
2023/11/03 05:07:39;;;;;;;2.38;0.82;;;;;;;;;;5064229;28;20041;-73
2023/11/03 05:10:10;;;;;;;5.68;0.85;;;;;;;;;;5064085;28;20060;-72
2023/11/03 05:12:41;;;;;;;6.05;0.80;;;;;;;;;;5062598;28;20052;-72
2023/11/03 05:15:11;;;;;;;5.95;1.23;;;;;;;;;;5063383;28;20028;-72
2023/11/03 05:17:42;;;;;;;2.30;0.88;;;;;;;;;;5062414;28;20056;-73
2023/11/03 05:20:12;;;;;;;1.33;0.80;;;;;;;;;;5062184;28;20052;-73
2023/11/03 05:22:43;;;;;;;4.97;0.75;;;;;;;;;;5061874;28;20507;-72
2023/11/03 05:25:13;;;;;;;2.90;0.85;;;;;;;;;;5063255;28;20052;-73
2023/11/03 05:27:43;;;;;;;8.25;0.82;;;;;;;;;;5063508;28;20044;-73
2023/11/03 05:30:14;;;;;;;5.55;0.88;;;;;;;;;;5063461;28;20056;-75
2023/11/03 05:32:44;;;;;;;1.25;0.90;;;;;;;;;;5062339;28;20400;-72
2023/11/03 05:35:15;;;;;;;2.65;0.80;;;;;;;;;;5063165;28;20063;-74
2023/11/03 05:37:46;;;;;;;0.85;0.70;;;;;;;;;;5062828;28;20048;-73
2023/11/03 05:40:18;;;;;;;4.70;1.00;;;;;;;;;;5063180;28;20049;-72
2023/11/03 05:42:48;;;;;;;1.30;0.73;;;;;;;;;;5062927;28;20049;-73
2023/11/03 05:45:18;;;;;;;1.45;0.80;;;;;;;;;;5063255;28;20518;-73
2023/11/03 05:47:49;;;;;;;5.97;0.90;;;;;;;;;;5064421;28;20048;-72
2023/11/03 05:50:19;;;;;;;3.08;0.90;;;;;;;;;;5061639;28;20052;-73
2023/11/03 05:52:49;;;;;;;8.82;0.70;;;;;;;;;;5063165;28;20040;-72
2023/11/03 05:55:20;;;;;;;5.78;0.93;;;;;;;;;;5061763;28;20052;-73
2023/11/03 05:57:51;;;;;;;1.13;0.80;;;;;;;;;;5062781;28;20032;-72
2023/11/03 06:00:27;;;;;;;5.45;0.88;;;;;;;;;;5062493;28;20051;-74
2023/11/03 06:02:57;;;;;;;5.40;0.90;;;;;;;;;;5062203;28;20609;-72
2023/11/03 06:05:27;;;;;;;0.98;0.80;;;;;;;;;;5062804;28;20053;-73
2023/11/03 06:07:58;;;;;;;1.85;0.80;;;;;;;;;;5062486;28;20421;-73
2023/11/03 06:10:29;;;;;;;7.05;0.68;;;;;;;;;;5061090;28;20063;-73
2023/11/03 06:12:59;;;;;;;2.20;0.77;;;;;;;;;;5061354;28;20507;-71
2023/11/03 06:15:29;;;;;;;3.22;0.68;;;;;;;;;;5062429;28;20057;-73
2023/11/03 06:18:01;;;;;;;6.85;0.80;;;;;;;;;;5062756;28;20052;-72
2023/11/03 06:20:32;;;;;;;5.57;0.70;;;;;;;;;;5062836;28;20494;-73
2023/11/03 06:23:02;;;;;;;1.98;0.80;;;;;;;;;;5062665;28;20052;-71
2023/11/03 06:25:33;;;;;;;1.83;0.90;;;;;;;;;;5062286;28;20048;-72
2023/11/03 06:28:02;;;;;;;4.95;0.70;;;;;;;;;;5060850;28;20048;-73
2023/11/03 06:30:33;;;;;;;1.55;0.70;;;;;;;;;;5062006;28;20048;-72
2023/11/03 06:33:03;;;;;;;1.75;0.73;;;;;;;;;;5061864;28;20059;-72
2023/11/03 06:35:34;;;;;;;1.63;0.50;;;;;;;;;;5061725;28;20048;-72
2023/11/03 06:38:04;;;;;;;1.90;0.60;;;;;;;;;;5060934;28;20051;-74
2023/11/03 06:40:34;;;;;;;4.80;0.80;;;;;;;;;;5062085;28;20495;-73
2023/11/03 06:43:05;;;;;;;3.03;0.85;;;;;;;;;;5061903;28;20052;-73
2023/11/03 06:45:36;;;;;;;2.25;0.70;;;;;;;;;;5060432;28;20049;-73
2023/11/03 06:48:07;;;;;;;4.78;0.80;;;;;;;;;;5062361;28;20059;-73
2023/11/03 06:50:37;;;;;;;1.58;0.70;;;;;;;;;;5062347;28;20044;-72
2023/11/03 06:53:10;;;;;;;2.15;0.70;;;;;;;;;;5062041;28;20060;-73
2023/11/03 06:55:41;;;;;;;0.95;0.70;;;;;;;;;;5061855;28;20059;-72
2023/11/03 06:58:11;;;;;;;6.38;0.90;;;;;;;;;;5061749;28;20048;-73
2023/11/03 07:00:43;;;;;;;2.47;0.77;;;;;;;;;;5062016;28;20059;-72
2023/11/03 07:03:15;;;;;;;2.65;0.75;;;;;;;;;;5061465;28;20049;-72
2023/11/03 07:05:46;;;;;;;3.65;0.80;;;;;;;;;;5061858;28;20056;-74
2023/11/03 07:08:16;;;;;;;1.75;0.80;;;;;;;;;;5062102;28;20040;-74
2023/11/03 07:10:46;;;;;;;4.40;1.05;;;;;;;;;;5062183;28;20048;-73
2023/11/03 07:13:17;;;;;;;2.00;0.60;;;;;;;;;;5061611;28;20048;-72
2023/11/03 07:15:48;;;;;;;2.60;0.68;;;;;;;;;;5061173;28;20075;-72
2023/11/03 07:18:18;;;;;;;4.15;0.70;;;;;;;;;;5060776;28;20044;-73
2023/11/03 07:20:48;;;;;;;1.63;0.73;;;;;;;;;;5061272;28;20057;-73
2023/11/03 07:23:21;;;;;;;4.10;0.80;;;;;;;;;;5061926;28;20052;-73
2023/11/03 07:25:55;;;;;;;2.63;0.60;;;;;;;;;;5061570;28;20441;-73
2023/11/03 07:28:26;;;;;;;0.90;0.60;;;;;;;;;;5061314;28;20048;-72
2023/11/03 07:30:57;;;;;;;1.02;0.80;;;;;;;;;;5060284;28;20799;-73
2023/11/03 07:33:27;;;;;;;1.85;0.68;;;;;;;;;;5043672;28;20611;-73
2023/11/03 07:35:57;;;;;;;1.30;0.80;;;;;;;;;;5061652;28;20084;-71
2023/11/03 07:38:28;;;;;;;6.03;0.93;;;;;;;;;;5060921;28;20048;-74
2023/11/03 07:40:59;;;;;;;2.38;0.77;;;;;;;;;;5061637;28;20679;-72
2023/11/03 07:43:30;;;;;;;3.80;0.90;;;;;;;;;;5061737;28;20060;-73
2023/11/03 07:46:01;;;;;;;6.78;0.77;;;;;;;;;;5062079;28;20049;-73
2023/11/03 07:48:31;;;;;;;4.65;0.80;;;;;;;;;;5061525;28;20048;-73
2023/11/03 07:51:02;;;;;;;2.50;0.75;;;;;;;;;;5061091;28;20056;-74
2023/11/03 07:53:34;;;;;;;3.20;1.02;;;;;;;;;;5061817;28;20083;-73
2023/11/03 07:56:04;;;;;;;2.67;0.70;;;;;;;;;;5061154;28;20566;-74
2023/11/03 07:58:35;;;;;;;3.05;0.70;;;;;;;;;;5061273;28;20041;-74
2023/11/03 08:01:06;;;;;;;3.13;0.60;;;;;;;;;;5061070;28;20052;-73
2023/11/03 08:03:36;;;;;;;3.13;0.60;;;;;;;;;;5061545;28;20521;-72
2023/11/03 08:06:07;;;;;;;2.38;0.70;;;;;;;;;;5060975;28;20446;-74
2023/11/03 08:08:37;;;;;;;3.97;0.70;;;;;;;;;;5060913;28;20044;-72
2023/11/03 08:11:08;;;;;;;6.07;0.70;;;;;;;;;;5061172;28;20051;-73
2023/11/03 08:13:40;;;;;;;3.70;0.60;;;;;;;;;;5062545;28;20049;-72
2023/11/03 08:16:11;;;;;;;2.08;1.02;;;;;;;;;;5064946;28;20809;-74
2023/11/03 08:18:42;;;;;;;1.10;0.80;;;;;;;;;;5065103;28;20056;-74
2023/11/03 08:21:12;;;;;;;0.75;0.65;;;;;;;;;;5064223;28;20041;-73
2023/11/03 08:23:43;;;;;;;5.32;0.90;;;;;;;;;;5065005;28;20052;-73
2023/11/03 08:26:17;;;;;;;3.38;0.80;;;;;;;;;;5064764;28;20040;-74
2023/11/03 08:28:49;;;;;;;1.77;0.85;;;;;;;;;;5063418;28;20057;-72
2023/11/03 08:31:20;;;;;;;1.00;0.80;;;;;;;;;;5064719;28;20060;-73
2023/11/03 08:33:51;;;;;;;4.85;1.10;;;;;;;;;;5064138;28;21160;-73
2023/11/03 08:36:26;;;;;;;7.32;0.80;;;;;;;;;;5064746;28;20491;-72
2023/11/03 08:38:56;;;;;;;2.03;0.75;;;;;;;;;;5063935;28;20052;-73
2023/11/03 08:41:27;;;;;;;0.88;0.63;;;;;;;;;;5063700;28;20443;-73
2023/11/03 08:43:57;;;;;;;3.15;1.00;;;;;;;;;;5064066;28;20044;-72
2023/11/03 08:46:27;;;;;;;1.80;0.80;;;;;;;;;;5064553;28;20041;-74
2023/11/03 08:48:59;;;;;;;6.68;0.90;;;;;;;;;;5064547;28;20044;-72
2023/11/03 08:51:30;;;;;;;2.55;1.00;;;;;;;;;;5064379;28;20048;-72
2023/11/03 08:54:01;;;;;;;4.78;1.00;;;;;;;;;;5063889;28;20059;-76
2023/11/03 08:56:31;;;;;;;3.15;0.73;;;;;;;;;;5064219;28;20065;-74
2023/11/03 08:59:03;;;;;;;3.20;1.05;;;;;;;;;;5064596;28;20048;-74
2023/11/03 09:01:33;;;;;;;4.43;1.08;;;;;;;;;;5064021;28;20047;-73
2023/11/03 09:04:05;;;;;;;2.10;0.80;;;;;;;;;;5063769;28;20044;-73
2023/11/03 09:06:36;;;;;;;2.72;0.93;;;;;;;;;;5063646;28;20052;-72
2023/11/03 09:09:08;;;;;;;9.25;0.95;;;;;;;;;;5064308;28;20491;-74
2023/11/03 09:11:38;;;;;;;1.17;0.73;;;;;;;;;;5063078;28;20048;-76
2023/11/03 09:14:10;;;;;;;4.03;1.10;;;;;;;;;;5063628;28;20052;-73
2023/11/03 09:16:40;;;;;;;5.75;1.70;;;;;;;;;;5063645;28;20422;-78
2023/11/03 09:19:10;;;;;;;5.13;1.25;;;;;;;;;;5063352;28;20052;-73
2023/11/03 09:21:40;;;;;;;2.85;0.93;;;;;;;;;;5062430;28;20063;-73
2023/11/03 09:24:11;;;;;;;5.10;0.77;;;;;;;;;;5063595;28;20044;-73
2023/11/03 09:26:42;;;;;;;5.78;1.20;;;;;;;;;;5063188;28;20037;-73
2023/11/03 09:29:23;;;;;;;4.20;1.83;;;;;;;;;;5061805;28;20072;-73
2023/11/03 09:31:53;;;;;;;4.85;1.00;;;;;;;;;;5063469;28;20044;-73
2023/11/03 09:34:25;;;;;;;3.50;0.82;;;;;;;;;;5063787;28;20052;-73
2023/11/03 09:37:02;;;;;;;4.03;0.98;;;;;;;;;;5063204;28;20499;-72
2023/11/03 09:39:35;;;;;;;7.47;1.08;;;;;;;;;;5062967;28;20086;-73
2023/11/03 09:42:07;;;;;;;2.47;1.00;;;;;;;;;;5063088;28;20040;-72
2023/11/03 09:44:39;;;;;;;1.30;0.70;;;;;;;;;;5063925;28;20044;-75
2023/11/03 09:47:14;;;;;;;2.95;1.00;;;;;;;;;;5063091;28;20051;-73
2023/11/03 09:49:45;;;;;;;;;;;;;;;;;;5063410;28;20056;-73
2023/11/03 09:52:29;;;;;;;2.55;1.00;;;;;;;;;;5062494;28;19943;-74
2023/11/03 09:55:17;;;;;;;1.17;0.73;;;;;;;;;;5048993;28;20056;-74
2023/11/03 09:57:54;;;;;;;2.13;0.95;;;;;;;;;;5063442;28;20041;-74
2023/11/03 10:00:27;;;;;;;4.45;0.80;;;;;;;;;;5062512;28;20048;-73
2023/11/03 10:02:57;;;;;;;1.58;0.90;;;;;;;;;;5062874;28;20049;-73
2023/11/03 10:05:30;;;;;;;8.57;1.38;;;;;;;;;;5062564;28;20052;-73
2023/11/03 10:08:07;;;;;;;2.30;1.40;;;;;;;;;;5062940;28;20056;-72
2023/11/03 10:10:44;;;;;;;;;;;;;;;;;;5063391;28;20064;-74
2023/11/03 10:13:15;;;;;;;6.05;1.10;;;;;;;;;;5062094;28;19928;-73
2023/11/03 10:15:46;;;;;;;2.70;0.80;;;;;;;;;;5062535;28;20491;-72
2023/11/03 10:18:17;;;;;;;5.65;1.30;;;;;;;;;;5062243;28;20048;-72
2023/11/03 10:20:49;;;;;;;8.88;4.68;;;;;;;;;;5062515;28;20050;-72
2023/11/03 10:23:22;;;;;;;3.17;1.08;;;;;;;;;;5061828;28;20526;-72
2023/11/03 10:25:54;;;;;;;3.78;1.30;;;;;;;;;;5062252;28;20521;-72
2023/11/03 10:28:26;;;;;;;2.00;1.00;;;;;;;;;;5062428;28;20056;-76
2023/11/03 10:30:56;;;;;;;2.42;1.10;;;;;;;;;;5060949;28;20050;-72
2023/11/03 10:33:27;;;;;;;5.32;1.35;;;;;;;;;;5061722;28;20041;-71
2023/11/03 10:35:58;;;;;;;6.53;1.20;;;;;;;;;;5062283;28;20049;-75
2023/11/03 10:38:28;;;;;;;3.20;1.20;;;;;;;;;;5062399;28;20052;-74
2023/11/03 10:41:02;;;;;;;3.47;1.27;;;;;;;;;;5062622;28;20051;-73
2023/11/03 10:43:43;;;;;;;5.75;1.80;;;;;;;;;;5061063;28;20462;-74
2023/11/03 10:46:32;;;;;;;4.70;1.40;;;;;;;;;;5061746;28;20063;-73
2023/11/03 10:49:37;;;;;;;4.07;1.90;;;;;;;;;;5062002;28;20537;-73
2023/11/03 10:52:16;;;;;;;3.67;1.80;;;;;;;;;;5061769;28;20056;-73
2023/11/03 10:55:08;;;;;;;2.78;1.60;;;;;;;;;;5061411;28;20056;-73
2023/11/03 10:57:38;;;;;;;5.97;2.38;;;;;;;;;;5061717;28;20060;-75
2023/11/03 11:00:34;;;;;;;9.77;2.22;;;;;;;;;;5062262;28;20052;-72
2023/11/03 11:03:07;;;;;;;10.73;2.28;;;;;;;;;;5062151;28;20049;-73
2023/11/03 11:05:48;;;;;;;6.50;1.52;;;;;;;;;;5061698;28;20048;-74
2023/11/03 11:08:21;;;;;;;2.88;1.33;;;;;;;;;;5061759;28;20617;-73
2023/11/03 11:10:52;;;;;;;2.45;1.15;;;;;;;;;;5061651;28;20495;-74
2023/11/03 11:13:24;;;;;;;1.95;1.17;;;;;;;;;;5061380;28;20051;-78
2023/11/03 11:15:58;;;;;;;4.57;1.30;;;;;;;;;;5062179;28;20061;-73
2023/11/03 11:18:57;;;;;;;5.05;1.63;;;;;;;;;;5062211;28;20857;-75
2023/11/03 11:21:49;;;;;;;2.47;1.00;;;;;;;;;;5059821;28;20056;-74
2023/11/03 11:24:23;;;;;;;2.08;1.25;;;;;;;;;;5061725;28;20052;-73
2023/11/03 11:27:21;;;;;;;3.83;1.83;;;;;;;;;;5061912;28;20049;-74
2023/11/03 11:30:23;;;;;;;3.67;1.27;;;;;;;;;;5061126;28;20053;-73
2023/11/03 11:32:55;;;;;;;5.38;1.45;;;;;;;;;;5044066;28;20060;-76
2023/11/03 11:35:36;;;;;;;4.63;1.58;;;;;;;;;;5060664;28;20055;-74
2023/11/03 11:38:07;;;;;;;5.15;1.45;;;;;;;;;;5059614;28;20060;-75
2023/11/03 11:40:38;;;;;;;2.90;1.83;;;;;;;;;;5061381;28;20052;-76
2023/11/03 11:43:11;;;;;;;3.88;1.17;;;;;;;;;;5061342;28;20044;-75
2023/11/03 11:45:53;;;;;;;4.10;1.98;;;;;;;;;;5060306;28;20048;-74
2023/11/03 11:48:24;;;;;;;4.07;1.45;;;;;;;;;;5061979;28;20581;-74
2023/11/03 11:50:55;;;;;;;2.63;1.23;;;;;;;;;;5065105;28;20044;-74
2023/11/03 11:54:01;;;;;;;5.22;1.40;;;;;;;;;;5065671;28;20053;-75
2023/11/03 11:56:31;;;;;;;2.13;1.10;;;;;;;;;;5065106;28;20056;-74
2023/11/03 11:59:06;;;;;;;3.35;1.63;;;;;;;;;;5065002;28;20387;-75
2023/11/03 12:01:39;;;;;;;2.40;1.35;;;;;;;;;;5065363;28;20045;-75
2023/11/03 12:04:28;;;;;;;3.55;1.58;;;;;;;;;;5065436;28;20056;-75
2023/11/03 12:07:05;;;;;;;2.05;1.15;;;;;;;;;;5064057;28;20060;-75
2023/11/03 12:09:38;;;;;;;7.70;2.20;;;;;;;;;;5065886;28;20052;-74
2023/11/03 12:12:22;;;;;;;6.88;1.65;;;;;;;;;;5066328;28;20651;-75
2023/11/03 12:14:53;;;;;;;1.98;1.30;;;;;;;;;;5064665;28;20064;-74
2023/11/03 12:17:24;;;;;;;3.35;1.77;;;;;;;;;;5064821;28;20415;-75
2023/11/03 12:19:57;;;;;;;2.75;1.20;;;;;;;;;;5064301;28;20048;-77
2023/11/03 12:22:29;;;;;;;4.95;2.58;;;;;;;;;;5064965;28;20053;-75
2023/11/03 12:25:01;;;;;;;7.18;2.40;;;;;;;;;;5064511;28;20040;-77
2023/11/03 12:27:32;;;;;;;5.35;2.25;;;;;;;;;;5065087;28;20396;-76
2023/11/03 12:30:06;;;;;;;4.80;1.55;;;;;;;;;;5064255;28;20145;-77
2023/11/03 12:32:36;;;;;;;8.98;2.42;;;;;;;;;;5063437;28;20048;-77
2023/11/03 12:35:10;;;;;;;5.30;1.40;;;;;;;;;;5064442;28;20059;-77
2023/11/03 12:37:43;;;;;;;7.60;3.33;;;;;;;;;;5065078;28;20049;-77
2023/11/03 12:40:22;;;;;;;3.50;1.40;;;;;;;;;;5065082;28;20049;-76
2023/11/03 12:43:18;;;;;;;4.30;0.90;;;;;;;;;;5063645;28;20049;-76
2023/11/03 12:46:08;;;;;;;9.57;1.10;;;;;;;;;;5062137;28;20045;-76
2023/11/03 12:48:40;;;;;;;4.68;1.00;;;;;;;;;;5064528;28;20051;-76
2023/11/03 12:51:11;;;;;;;3.90;1.00;;;;;;;;;;5063847;28;20056;-75
2023/11/03 12:54:03;;;;;;;1.20;0.95;;;;;;;;;;5063899;28;20063;-75
2023/11/03 12:56:56;;;;;;;3.00;0.88;;;;;;;;;;5062425;28;20048;-74
2023/11/03 12:59:27;;;;;;;3.00;0.88;;;;;;;;;;5063396;28;20048;-75
2023/11/03 13:01:57;;;;;;;1.17;0.70;;;;;;;;;;5064434;28;20055;-76
2023/11/03 13:04:28;;;;;;;1.73;0.93;;;;;;;;;;5063598;28;20045;-75
2023/11/03 13:06:58;;;;;;;3.38;0.82;;;;;;;;;;5064216;28;20044;-75
2023/11/03 13:09:29;;;;;;;2.22;0.60;;;;;;;;;;5064769;28;20381;-81
2023/11/03 13:11:59;;;;;;;3.80;0.88;;;;;;;;;;5064266;28;20041;-79
2023/11/03 13:14:30;;;;;;;1.83;0.90;;;;;;;;;;5064140;28;20495;-75
2023/11/03 13:17:01;;;;;;;0.70;0.70;;;;;;;;;;5064092;28;20048;-76
2023/11/03 13:19:36;;;;;;;2.40;0.90;;;;;;;;;;5063940;28;20044;-76
2023/11/03 13:22:08;;;;;;;1.77;0.90;;;;;;;;;;5063988;28;20514;-75
2023/11/03 13:24:44;;;;;;;2.50;1.80;;;;;;;;;;5064088;28;20059;-78
2023/11/03 13:27:14;;;;;;;3.45;1.90;;;;;;;;;;5063774;28;20052;-75
2023/11/03 13:29:44;;;;;;;2.63;1.35;;;;;;;;;;5064033;28;20049;-75
2023/11/03 13:32:18;;;;;;;5.63;1.30;;;;;;;;;;5062449;28;20048;-75
2023/11/03 13:34:49;;;;;;;1.80;1.20;;;;;;;;;;5063629;28;20449;-75
2023/11/03 13:37:21;;;;;;;3.20;1.15;;;;;;;;;;5063297;28;20471;-75
2023/11/03 13:39:52;;;;;;;2.53;1.83;;;;;;;;;;5063656;28;20060;-74
2023/11/03 13:42:23;;;;;;;3.55;1.70;;;;;;;;;;5063728;28;20048;-75
2023/11/03 13:44:53;;;;;;;3.08;1.50;;;;;;;;;;5063276;28;20048;-74
2023/11/03 13:47:26;;;;;;;1.65;1.20;;;;;;;;;;5063302;28;20056;-75
2023/11/03 13:49:56;;;;;;;2.17;1.30;;;;;;;;;;5063956;28;20506;-77
2023/11/03 13:52:39;;;;;;;6.40;2.03;;;;;;;;;;5062793;28;20410;-74
2023/11/03 13:55:10;;;;;;;6.93;1.85;;;;;;;;;;5062771;28;20426;-74
2023/11/03 13:57:42;;;;;;;4.95;2.30;;;;;;;;;;5062826;28;20036;-75
2023/11/03 14:00:14;;;;;;;3.80;2.03;;;;;;;;;;5061631;28;20560;-76
2023/11/03 14:02:52;;;;;;;5.45;2.42;;;;;;;;;;5062010;28;20055;-79
2023/11/03 14:05:23;;;;;;;4.78;2.38;;;;;;;;;;5061673;28;20052;-76
2023/11/03 14:07:55;;;;;;;5.47;2.15;;;;;;;;;;5061386;28;20052;-74
2023/11/03 14:10:35;;;;;;;4.30;1.90;;;;;;;;;;5062665;28;20072;-75
2023/11/03 14:13:11;;;;;;;5.20;1.92;;;;;;;;;;5062443;28;20513;-74
2023/11/03 14:15:43;;;;;;;4.18;1.90;;;;;;;;;;5062054;28;20056;-73
2023/11/03 14:18:14;;;;;;;5.82;1.98;;;;;;;;;;5062420;28;20056;-74
2023/11/03 14:20:46;;;;;;;4.20;1.80;;;;;;;;;;5062036;28;20392;-74
2023/11/03 14:23:20;;;;;;;3.20;2.03;;;;;;;;;;5062561;28;20051;-73
2023/11/03 14:25:51;;;;;;;2.70;1.70;;;;;;;;;;5062501;28;20475;-78
2023/11/03 14:28:22;;;;;;;4.22;2.42;;;;;;;;;;5062815;28;20063;-75
2023/11/03 14:30:53;;;;;;;2.90;1.80;;;;;;;;;;5062868;28;20044;-73
2023/11/03 14:33:26;;;;;;;2.22;1.48;;;;;;;;;;5063075;28;20076;-74
2023/11/03 14:35:57;;;;;;;2.63;2.00;;;;;;;;;;5062554;28;20055;-73
2023/11/03 14:38:45;;;;;;;3.40;1.58;;;;;;;;;;5062519;28;20079;-73
2023/11/03 14:41:24;;;;;;;2.33;1.42;;;;;;;;;;5062988;28;20064;-74
2023/11/03 14:43:54;;;;;;;1.75;1.40;;;;;;;;;;5062418;28;20052;-73
2023/11/03 14:46:26;;;;;;;4.47;1.70;;;;;;;;;;5062057;28;20067;-74
2023/11/03 14:48:58;;;;;;;1.70;1.15;;;;;;;;;;5061942;28;20041;-73
2023/11/03 14:51:29;;;;;;;1.25;1.08;;;;;;;;;;5062422;28;20079;-74
2023/11/03 14:54:00;;;;;;;4.18;1.42;;;;;;;;;;5060620;28;20036;-76
2023/11/03 14:56:34;;;;;;;1.60;1.20;;;;;;;;;;5062504;28;20474;-73
2023/11/03 14:59:04;;;;;;;1.75;1.08;;;;;;;;;;5061965;28;20594;-73
2023/11/03 15:01:34;;;;;;;2.53;1.55;;;;;;;;;;5062155;28;20044;-73
2023/11/03 15:04:05;;;;;;;5.28;1.52;;;;;;;;;;5061654;28;20044;-73
2023/11/03 15:06:36;;;;;;;1.27;1.08;;;;;;;;;;5061830;28;20044;-77
2023/11/03 15:09:06;;;;;;;2.00;1.23;;;;;;;;;;5062634;28;21040;-73
2023/11/03 15:11:37;;;;;;;2.00;1.70;;;;;;;;;;5062295;28;20542;-72
2023/11/03 15:14:07;;;;;;;1.70;1.20;;;;;;;;;;5062244;28;20419;-73